Time;durP1;ratioP1;P1;durP2;ratioP2;P2;SDS_P1;SDS_P2;PMS_P1;PMS_P2;Temp;Humidity;BMP_temperature;BMP_pressure;BME280_temperature;BME280_humidity;BME280_pressure;Samples;Min_cycle;Max_cycle;Signal;HPM_P1;HPM_P2
2023/07/07 00:01:43;;;;;;;1999.90;999.90;;;17.70;99.90;;;;;;4957365;29;20497;-72
2023/07/07 00:04:09;;;;;;;1999.90;999.90;;;17.70;99.90;;;;;;4967602;28;20027;-71
2023/07/07 00:06:34;;;;;;;1999.90;999.90;;;17.70;99.90;;;;;;4956998;28;20027;-72
2023/07/07 00:09:00;;;;;;;1999.90;999.90;;;17.70;99.90;;;;;;4938002;29;20383;-72
2023/07/07 00:11:26;;;;;;;1999.90;999.90;;;17.60;99.90;;;;;;4957171;29;20110;-70
2023/07/07 00:13:54;;;;;;;1999.90;999.90;;;17.60;99.90;;;;;;4956898;29;20449;-72
2023/07/07 00:16:27;;;;;;;1999.90;999.90;;;17.60;99.90;;;;;;4957348;29;20046;-71
2023/07/07 00:18:54;;;;;;;1999.90;999.90;;;17.50;99.90;;;;;;4956902;29;20024;-72
2023/07/07 00:21:24;;;;;;;1999.90;999.90;;;17.50;99.90;;;;;;4939399;29;20039;-70
2023/07/07 00:23:53;;;;;;;1999.90;999.90;;;17.50;99.90;;;;;;4956668;29;20023;-72
2023/07/07 00:26:19;;;;;;;1999.90;999.90;;;17.50;99.90;;;;;;4939672;29;20035;-71
2023/07/07 00:28:45;;;;;;;1999.90;999.90;;;17.40;99.90;;;;;;4956410;29;20490;-71
2023/07/07 00:31:10;;;;;;;1999.90;999.90;;;17.40;99.90;;;;;;4955540;28;20023;-70
2023/07/07 00:33:36;;;;;;;1999.90;999.90;;;17.40;99.90;;;;;;4956722;29;20576;-71
2023/07/07 00:36:02;;;;;;;1999.90;999.90;;;17.40;99.90;;;;;;4939262;29;20394;-70
2023/07/07 00:38:28;;;;;;;1999.90;999.90;;;17.30;99.90;;;;;;4939196;29;20034;-72
2023/07/07 00:40:54;;;;;;;1999.90;999.90;;;17.30;99.90;;;;;;4939009;29;20062;-71
2023/07/07 00:43:20;;;;;;;1999.90;999.90;;;17.30;99.90;;;;;;4939068;29;20031;-71
2023/07/07 00:45:46;;;;;;;1999.90;999.90;;;17.20;99.90;;;;;;4956028;29;20050;-72
2023/07/07 00:48:20;;;;;;;1999.90;999.90;;;17.20;99.90;;;;;;4938353;29;20047;-72
2023/07/07 00:50:53;;;;;;;1999.90;999.90;;;17.10;99.90;;;;;;4955949;29;20031;-72
2023/07/07 00:53:20;;;;;;;1999.90;999.90;;;17.10;99.90;;;;;;4956151;29;20486;-72
2023/07/07 00:55:57;;;;;;;1999.90;999.90;;;17.10;99.90;;;;;;4938899;29;20082;-71
2023/07/07 00:58:25;;;;;;;1999.90;999.90;;;17.00;99.90;;;;;;4938929;29;20020;-71
2023/07/07 01:01:14;;;;;;;1999.90;999.90;;;17.10;99.90;;;;;;4955840;29;20035;-71
2023/07/07 01:03:43;;;;;;;1999.90;999.90;;;17.00;99.90;;;;;;4958941;28;20023;-71
2023/07/07 01:06:12;;;;;;;1999.90;999.90;;;16.90;99.90;;;;;;4975158;28;20042;-71
2023/07/07 01:08:40;;;;;;;1999.90;999.90;;;16.90;99.90;;;;;;4970805;28;20102;-72
2023/07/07 01:11:06;;;;;;;1999.90;999.90;;;16.90;99.90;;;;;;4955863;29;20055;-71
2023/07/07 01:13:32;;;;;;;1999.90;999.90;;;16.90;99.90;;;;;;4955915;29;20401;-71
2023/07/07 01:16:20;;;;;;;1999.90;999.90;;;16.90;99.90;;;;;;4955956;29;20032;-72
2023/07/07 01:18:59;;;;;;;1999.90;999.90;;;16.90;99.90;;;;;;4927487;29;20043;-72
2023/07/07 01:21:31;;;;;;;1999.90;999.90;;;16.90;99.90;;;;;;4938455;29;20049;-72
2023/07/07 01:24:18;;;;;;;1999.90;999.90;;;16.80;99.90;;;;;;4956012;29;20069;-72
2023/07/07 01:26:51;;;;;;;1999.90;999.90;;;16.80;99.90;;;;;;4938400;29;20054;-71
2023/07/07 01:29:38;;;;;;;1999.90;999.90;;;16.70;99.90;;;;;;4955652;28;20027;-71
2023/07/07 01:32:13;;;;;;;1999.90;999.90;;;16.70;99.90;;;;;;4955425;29;20034;-71
2023/07/07 01:34:39;;;;;;;1999.90;999.90;;;16.70;99.90;;;;;;4938269;29;20074;-71
2023/07/07 01:37:05;;;;;;;1999.90;999.90;;;16.70;99.90;;;;;;4955528;29;20035;-71
2023/07/07 01:39:30;;;;;;;1999.90;999.90;;;16.70;99.90;;;;;;4955408;29;20039;-71
2023/07/07 01:42:19;;;;;;;1999.90;999.90;;;16.70;99.90;;;;;;4955209;28;20569;-71
2023/07/07 01:44:56;;;;;;;1999.90;999.90;;;16.60;99.90;;;;;;4954634;29;20039;-71
2023/07/07 01:47:33;;;;;;;1999.90;999.90;;;16.60;99.90;;;;;;4952294;28;20047;-70
2023/07/07 01:50:09;;;;;;;1999.90;999.90;;;16.50;99.90;;;;;;4937559;29;20063;-72
2023/07/07 01:52:54;;;;;;;1999.90;999.90;;;16.50;99.90;;;;;;4937147;29;20038;-71
2023/07/07 01:55:33;;;;;;;1999.90;999.90;;;16.40;99.90;;;;;;4937785;29;20027;-72
2023/07/07 01:58:01;;;;;;;1999.90;999.90;;;16.40;99.90;;;;;;4955262;29;20493;-72
2023/07/07 02:00:29;;;;;;;1999.90;999.90;;;16.40;99.90;;;;;;4955311;29;20106;-70
2023/07/07 02:02:57;;;;;;;1999.90;999.90;;;16.40;99.90;;;;;;4960129;28;20031;-71
2023/07/07 02:05:23;;;;;;;1999.90;999.90;;;16.30;99.90;;;;;;4974308;28;20110;-70
2023/07/07 02:07:49;;;;;;;1999.90;999.90;;;16.30;99.90;;;;;;4974252;28;20034;-70
2023/07/07 02:10:15;;;;;;;1999.90;999.90;;;16.30;99.90;;;;;;4956512;28;20027;-71
2023/07/07 02:12:40;;;;;;;1999.90;999.90;;;16.30;99.90;;;;;;4948707;28;20038;-72
2023/07/07 02:15:07;;;;;;;1999.90;999.90;;;16.20;99.90;;;;;;4974251;28;20031;-71
2023/07/07 02:17:32;;;;;;;1999.90;999.90;;;16.20;99.90;;;;;;4957254;28;20023;-70
2023/07/07 02:19:58;;;;;;;1999.90;999.90;;;16.10;99.90;;;;;;4974226;28;20397;-71
2023/07/07 02:22:24;;;;;;;1999.90;999.90;;;16.10;99.90;;;;;;4974261;28;20497;-70
2023/07/07 02:24:50;;;;;;;1999.90;999.90;;;16.10;99.90;;;;;;4965023;28;20038;-71
2023/07/07 02:27:15;;;;;;;1999.90;999.90;;;16.00;99.90;;;;;;4955068;29;20030;-70
2023/07/07 02:29:41;;;;;;;1999.90;999.90;;;16.00;99.90;;;;;;4954961;29;20102;-72
2023/07/07 02:32:07;;;;;;;1999.90;999.90;;;15.90;99.90;;;;;;4955010;29;20062;-71
2023/07/07 02:34:32;;;;;;;1999.90;999.90;;;15.90;99.90;;;;;;4969517;28;20031;-70
2023/07/07 02:36:58;;;;;;;1999.90;999.90;;;15.90;99.90;;;;;;4954776;29;20042;-71
2023/07/07 02:39:25;;;;;;;1999.90;999.90;;;16.00;99.90;;;;;;4955423;29;20027;-70
2023/07/07 02:41:50;;;;;;;1999.90;999.90;;;15.90;99.90;;;;;;4938165;29;20031;-70
2023/07/07 02:44:16;;;;;;;1999.90;999.90;;;15.90;99.90;;;;;;4954826;29;20034;-70
2023/07/07 02:46:42;;;;;;;1999.90;999.90;;;16.00;99.90;;;;;;4953887;29;20051;-71
2023/07/07 02:49:07;;;;;;;1999.90;999.90;;;16.00;99.90;;;;;;4954754;29;20105;-70
2023/07/07 02:51:33;;;;;;;1999.90;999.90;;;16.00;99.90;;;;;;4954175;29;20019;-70
2023/07/07 02:53:58;;;;;;;1999.90;999.90;;;16.10;99.90;;;;;;4955536;28;20378;-72
2023/07/07 02:56:24;;;;;;;1999.90;999.90;;;16.10;99.90;;;;;;4958360;29;20019;-70
2023/07/07 02:58:49;;;;;;;1999.90;999.90;;;16.10;99.90;;;;;;4958223;29;20397;-71
2023/07/07 03:01:18;;;;;;;1999.90;999.90;;;16.00;99.90;;;;;;4941135;29;20059;-70
2023/07/07 03:03:47;;;;;;;1999.90;999.90;;;16.00;99.90;;;;;;4969951;28;20378;-72
2023/07/07 03:06:16;;;;;;;1999.90;999.90;;;16.00;99.90;;;;;;4960218;28;20023;-70
2023/07/07 03:08:42;;;;;;;1999.90;999.90;;;16.00;99.90;;;;;;4959476;28;20508;-72
2023/07/07 03:11:10;;;;;;;1999.90;999.90;;;16.10;99.90;;;;;;4958128;29;20055;-71
2023/07/07 03:13:36;;;;;;;1999.90;999.90;;;16.10;99.90;;;;;;4940860;29;20038;-70
2023/07/07 03:16:15;;;;;;;1999.90;999.90;;;16.20;99.90;;;;;;4958044;29;20031;-71
2023/07/07 03:18:41;;;;;;;1999.90;999.90;;;16.10;99.90;;;;;;4940603;29;20501;-72
2023/07/07 03:21:08;;;;;;;1999.90;999.90;;;16.10;99.90;;;;;;4957648;29;20098;-71
2023/07/07 03:23:35;;;;;;;1999.90;999.90;;;16.10;99.90;;;;;;4957889;29;20051;-70
2023/07/07 03:26:12;;;;;;;1999.90;999.90;;;16.20;99.90;;;;;;4957721;29;20027;-70
2023/07/07 03:28:38;;;;;;;1999.90;999.90;;;16.20;99.90;;;;;;4940508;29;20090;-71
2023/07/07 03:31:23;;;;;;;1999.90;999.90;;;16.30;99.90;;;;;;4940563;29;20023;-70
2023/07/07 03:33:51;;;;;;;1999.90;999.90;;;16.50;99.90;;;;;;4957635;29;20035;-72
2023/07/07 03:36:21;;;;;;;1999.90;999.90;;;16.50;99.90;;;;;;4957568;29;20027;-71
2023/07/07 03:38:47;;;;;;;1999.90;999.90;;;16.60;99.90;;;;;;4957524;29;20035;-71
2023/07/07 03:41:18;;;;;;;1999.90;999.90;;;16.60;99.90;;;;;;4957607;29;20504;-70
2023/07/07 03:43:47;;;;;;;1999.90;999.90;;;16.60;99.90;;;;;;4957738;29;20019;-72
2023/07/07 03:46:18;;;;;;;1999.90;999.90;;;16.70;99.90;;;;;;4956575;29;20047;-72
2023/07/07 03:48:45;;;;;;;1999.90;999.90;;;16.70;99.90;;;;;;4939872;29;20054;-72
2023/07/07 03:51:12;;;;;;;1999.90;999.90;;;16.80;99.90;;;;;;4967961;28;20027;-70
2023/07/07 03:53:38;;;;;;;1999.90;999.90;;;16.80;99.90;;;;;;4976855;28;20501;-71
2023/07/07 03:56:05;;;;;;;1999.90;999.90;;;16.80;99.90;;;;;;4957411;29;20122;-72
2023/07/07 03:58:31;;;;;;;1999.90;999.90;;;16.80;99.90;;;;;;4940054;29;20446;-71
2023/07/07 04:01:09;;;;;;;1999.90;999.90;;;16.90;99.90;;;;;;4940255;29;20031;-71
2023/07/07 04:03:35;;;;;;;1999.90;999.90;;;17.00;99.90;;;;;;4967513;28;20038;-71
2023/07/07 04:06:01;;;;;;;1999.90;999.90;;;17.00;99.90;;;;;;4937767;29;20035;-72
2023/07/07 04:08:27;;;;;;;1999.90;999.90;;;17.00;99.90;;;;;;4941018;29;20050;-70
2023/07/07 04:11:10;;;;;;;1999.90;999.90;;;17.00;99.90;;;;;;4939629;29;20043;-72
2023/07/07 04:13:38;;;;;;;1999.90;999.90;;;17.00;99.90;;;;;;4939646;29;20023;-71
2023/07/07 04:16:16;;;;;;;1999.90;999.90;;;17.10;99.90;;;;;;4956043;29;20020;-71
2023/07/07 04:18:44;;;;;;;1999.90;999.90;;;17.10;99.90;;;;;;4956508;29;20028;-71
2023/07/07 04:21:12;;;;;;;1999.90;999.90;;;17.10;99.90;;;;;;4956720;29;20067;-71
2023/07/07 04:23:40;;;;;;;1999.90;999.90;;;17.20;99.90;;;;;;4956578;29;20425;-71
2023/07/07 04:26:07;;;;;;;1999.90;999.90;;;17.20;99.90;;;;;;4939426;29;20098;-71
2023/07/07 04:28:36;;;;;;;1999.90;999.90;;;17.30;99.90;;;;;;4956769;29;20066;-71
2023/07/07 04:31:03;;;;;;;1999.90;999.90;;;17.30;99.90;;;;;;4939120;29;20031;-71
2023/07/07 04:33:30;;;;;;;1999.90;999.90;;;17.40;99.90;;;;;;4956735;29;20043;-71
2023/07/07 04:35:58;;;;;;;1999.90;999.90;;;17.50;99.90;;;;;;4938910;29;20031;-71
2023/07/07 04:38:30;;;;;;;1999.90;999.90;;;17.60;99.90;;;;;;4968664;28;20030;-71
2023/07/07 04:41:15;;;;;;;1999.90;999.90;;;17.70;99.90;;;;;;4975426;28;20022;-71
2023/07/07 04:43:43;;;;;;;1999.90;999.90;;;17.80;99.90;;;;;;4947191;29;20046;-71
2023/07/07 04:46:14;;;;;;;1999.90;999.90;;;17.80;99.90;;;;;;4957090;28;20169;-71
2023/07/07 04:48:39;;;;;;;1999.90;999.90;;;17.90;99.90;;;;;;4955828;29;20114;-71
2023/07/07 04:51:08;;;;;;;1999.90;999.90;;;17.90;99.90;;;;;;4938562;29;20166;-72
2023/07/07 04:53:35;;;;;;;1999.90;999.90;;;17.90;99.90;;;;;;4938136;29;20030;-71
2023/07/07 04:56:02;;;;;;;1999.90;999.90;;;18.00;99.90;;;;;;4955684;29;20024;-71
2023/07/07 04:58:31;;;;;;;1999.90;999.90;;;18.10;99.90;;;;;;4956015;29;20393;-71
2023/07/07 05:01:12;;;;;;;1999.90;999.90;;;18.00;99.90;;;;;;4938432;29;20489;-71
2023/07/07 05:03:40;;;;;;;1999.90;999.90;;;18.10;99.90;;;;;;4941154;28;20078;-71
2023/07/07 05:06:06;;;;;;;1999.90;999.90;;;18.20;99.90;;;;;;4956107;28;20032;-71
2023/07/07 05:08:33;;;;;;;1999.90;999.90;;;18.20;99.90;;;;;;4955873;28;20370;-71
2023/07/07 05:10:59;;;;;;;1999.90;999.90;;;18.40;99.90;;;;;;4938378;29;20035;-72
2023/07/07 05:13:25;;;;;;;1999.90;999.90;;;18.40;99.90;;;;;;4955652;29;20027;-71
2023/07/07 05:15:59;;;;;;;1999.90;999.90;;;18.60;99.90;;;;;;4955356;29;20111;-72
2023/07/07 05:18:24;;;;;;;1999.90;999.90;;;18.70;99.90;;;;;;4955253;28;20050;-72
2023/07/07 05:20:50;;;;;;;1999.90;999.90;;;18.70;99.90;;;;;;4954003;29;20031;-71
2023/07/07 05:23:15;;;;;;;1999.90;999.90;;;18.70;99.90;;;;;;4955518;28;20394;-71
2023/07/07 05:25:44;;;;;;;1999.90;999.90;;;18.80;99.90;;;;;;4941508;29;20158;-71
2023/07/07 05:28:09;;;;;;;1999.90;999.90;;;18.80;99.90;;;;;;4955337;29;20062;-70
2023/07/07 05:30:35;;;;;;;1999.90;999.90;;;18.80;99.90;;;;;;4955272;29;20070;-71
2023/07/07 05:33:00;;;;;;;1999.90;999.90;;;18.80;99.90;;;;;;4954700;29;20039;-72
2023/07/07 05:35:26;;;;;;;1999.90;999.90;;;18.80;99.90;;;;;;4955202;29;20023;-71
2023/07/07 05:37:52;;;;;;;1999.90;999.90;;;18.90;99.90;;;;;;4954909;28;20461;-71
2023/07/07 05:40:17;;;;;;;1999.90;999.90;;;18.90;99.90;;;;;;4959863;28;20047;-72
2023/07/07 05:42:43;;;;;;;1999.90;999.90;;;18.90;99.90;;;;;;4955162;29;20031;-72
2023/07/07 05:45:09;;;;;;;1999.90;999.90;;;18.90;99.90;;;;;;4946637;28;20101;-71
2023/07/07 05:47:34;;;;;;;1999.90;999.90;;;19.00;99.90;;;;;;4957189;28;20055;-71
2023/07/07 05:50:00;;;;;;;1999.90;999.90;;;19.00;99.90;;;;;;4955840;28;20504;-71
2023/07/07 05:52:25;;;;;;;1999.90;999.90;;;19.10;99.90;;;;;;4952002;29;20030;-71
2023/07/07 05:54:51;;;;;;;1999.90;999.90;;;19.20;99.90;;;;;;4954351;29;20031;-71
2023/07/07 05:57:17;;;;;;;1999.90;999.90;;;19.30;99.90;;;;;;4954959;29;20425;-71
2023/07/07 05:59:42;;;;;;;1999.90;999.90;;;19.40;99.90;;;;;;4937215;29;20035;-71
2023/07/07 06:02:11;;;;;;;1999.90;999.90;;;19.50;99.90;;;;;;4958754;28;20054;-70
2023/07/07 06:04:36;;;;;;;1999.90;999.90;;;19.70;99.90;;;;;;4947631;28;20030;-71
2023/07/07 06:07:02;;;;;;;1999.90;999.90;;;19.80;99.90;;;;;;4973438;28;20043;-72
2023/07/07 06:09:28;;;;;;;1999.90;999.90;;;19.90;99.90;;;;;;4956765;28;20043;-71
2023/07/07 06:11:53;;;;;;;1999.90;999.90;;;20.00;99.90;;;;;;4935778;28;20155;-71
2023/07/07 06:14:19;;;;;;;1999.90;999.90;;;20.10;99.90;;;;;;4914218;29;20090;-72
2023/07/07 06:16:44;;;;;;;1999.90;999.90;;;20.20;99.90;;;;;;4926183;28;20031;-71
2023/07/07 06:19:10;;;;;;;1999.90;999.90;;;20.30;99.90;;;;;;4914375;29;20541;-71
2023/07/07 06:21:35;;;;;;;1999.90;999.90;;;20.40;99.90;;;;;;4918091;28;20054;-72
2023/07/07 06:24:02;;;;;;;1999.90;999.90;;;20.50;99.90;;;;;;4930568;28;20039;-72
2023/07/07 06:26:27;;;;;;;1999.90;999.90;;;20.60;99.90;;;;;;4927163;29;20035;-71
2023/07/07 06:28:53;;;;;;;1999.90;999.90;;;20.70;99.90;;;;;;4927695;28;20043;-71
2023/07/07 06:31:19;;;;;;;1999.90;999.90;;;20.90;99.90;;;;;;4931786;28;20035;-71
2023/07/07 06:33:44;;;;;;;1999.90;999.90;;;21.00;99.90;;;;;;4928806;28;20031;-72
2023/07/07 06:36:10;;;;;;;1999.90;999.90;;;21.10;99.90;;;;;;4930534;28;20933;-72
2023/07/07 06:38:35;;;;;;;1999.90;999.90;;;21.30;99.90;;;;;;4932957;28;20031;-71
2023/07/07 06:41:01;;;;;;;1999.90;999.90;;;21.40;99.90;;;;;;4932334;28;20039;-71
2023/07/07 06:43:27;;;;;;;1999.90;999.90;;;21.50;99.90;;;;;;4926368;28;20039;-71
2023/07/07 06:45:56;;;;;;;1999.90;999.90;;;21.60;99.90;;;;;;4927811;28;20162;-71
2023/07/07 06:48:21;;;;;;;1999.90;999.90;;;21.70;99.90;;;;;;4914445;29;20481;-71
2023/07/07 06:50:47;;;;;;;1999.90;999.90;;;21.90;99.90;;;;;;4929617;28;20466;-71
2023/07/07 06:53:14;;;;;;;1999.90;999.90;;;22.00;99.90;;;;;;4929133;28;20035;-71
2023/07/07 06:55:40;;;;;;;1999.90;999.90;;;22.10;99.90;;;;;;4911972;28;20458;-68
2023/07/07 06:58:07;;;;;;;1999.90;999.90;;;22.30;99.90;;;;;;4916595;29;20837;-69
2023/07/07 07:00:33;;;;;;;1999.90;999.90;;;22.50;99.90;;;;;;4924469;28;20031;-70
2023/07/07 07:02:58;;;;;;;1999.90;999.90;;;22.60;99.90;;;;;;4937733;28;20567;-70
2023/07/07 07:05:24;;;;;;;1999.90;999.90;;;22.80;99.90;;;;;;4934632;28;20031;-69
2023/07/07 07:07:50;;;;;;;1999.90;999.90;;;22.90;99.90;;;;;;4932473;28;20431;-70
2023/07/07 07:10:15;;;;;;;1999.90;999.90;;;23.10;99.90;;;;;;4930233;28;20044;-69
2023/07/07 07:12:41;;;;;;;1999.90;999.90;;;23.20;99.90;;;;;;4929950;28;20035;-68
2023/07/07 07:15:07;;;;;;;1999.90;999.90;;;23.40;99.90;;;;;;4928231;28;20783;-70
2023/07/07 07:17:33;;;;;;;1999.90;999.90;;;23.60;99.90;;;;;;4914117;29;20434;-69
2023/07/07 07:20:00;;;;;;;1999.90;999.90;;;23.70;99.90;;;;;;4933704;28;20467;-69
2023/07/07 07:22:25;;;;;;;1999.90;999.90;;;23.80;99.90;;;;;;4928360;29;20031;-69
2023/07/07 07:24:51;;;;;;;1999.90;999.90;;;24.00;99.90;;;;;;4918585;29;20138;-70
2023/07/07 07:27:17;;;;;;;1999.90;999.90;;;24.20;99.90;;;;;;4928817;29;20031;-70
2023/07/07 07:29:43;;;;;;;1999.90;999.90;;;24.40;99.90;;;;;;4928791;28;20144;-70
2023/07/07 07:32:09;;;;;;;1999.90;999.90;;;24.60;99.90;;;;;;4928127;29;20043;-69
2023/07/07 07:34:35;;;;;;;1999.90;999.90;;;24.80;99.90;;;;;;4928625;29;20553;-69
2023/07/07 07:37:02;;;;;;;1999.90;999.90;;;25.10;99.90;;;;;;4928041;28;20046;-69
2023/07/07 07:39:28;;;;;;;1999.90;999.90;;;26.50;99.90;;;;;;4926777;28;20042;-70
2023/07/07 07:41:55;;;;;;;1999.90;999.90;;;28.70;99.90;;;;;;4929315;28;20039;-70
2023/07/07 07:44:24;;;;;;;1999.90;999.90;;;29.80;99.90;;;;;;4910414;28;20064;-70
2023/07/07 07:46:52;;;;;;;1999.90;999.90;;;30.10;99.10;;;;;;4926177;28;20059;-70
2023/07/07 07:49:17;;;;;;;1999.90;999.90;;;30.60;98.50;;;;;;4912464;29;20138;-70
2023/07/07 07:51:43;;;;;;;1999.90;999.90;;;31.30;97.80;;;;;;4928563;29;20141;-73
2023/07/07 07:54:11;;;;;;;1999.90;999.90;;;32.00;96.70;;;;;;4928437;28;20472;-73
2023/07/07 07:56:38;;;;;;;1999.90;999.90;;;32.20;95.80;;;;;;4929327;29;20580;-72
2023/07/07 07:59:05;;;;;;;1999.90;999.90;;;32.80;95.50;;;;;;4913243;28;20870;-72
2023/07/07 08:01:31;;;;;;;1999.90;999.90;;;32.90;95.00;;;;;;4928658;28;20440;-73
2023/07/07 08:03:56;;;;;;;1999.90;999.90;;;32.70;95.20;;;;;;4935063;28;20023;-72
2023/07/07 08:06:22;;;;;;;1999.90;999.90;;;32.40;95.20;;;;;;4926644;29;20640;-73
2023/07/07 08:08:48;;;;;;;1999.90;999.90;;;32.60;95.70;;;;;;4927786;29;20029;-72
2023/07/07 08:11:16;;;;;;;1999.90;999.90;;;33.10;96.20;;;;;;4927307;29;20039;-73
2023/07/07 08:13:42;;;;;;;1999.90;999.90;;;33.50;94.80;;;;;;4932119;28;20500;-73
2023/07/07 08:16:12;;;;;;;1999.90;999.90;;;33.00;95.20;;;;;;4934043;28;20035;-72
2023/07/07 08:18:38;;;;;;;1999.90;999.90;;;33.50;95.60;;;;;;4911020;29;20480;-74
2023/07/07 08:21:05;;;;;;;1999.90;999.90;;;34.30;94.80;;;;;;4929133;29;20031;-73
2023/07/07 08:23:31;;;;;;;1999.90;999.90;;;34.40;95.10;;;;;;4929885;29;20038;-71
2023/07/07 08:25:56;;;;;;;1999.90;999.90;;;34.20;94.70;;;;;;4930203;28;20719;-72
2023/07/07 08:28:22;;;;;;;1999.90;999.90;;;34.60;94.50;;;;;;4929215;29;20034;-72
2023/07/07 08:30:47;;;;;;;1999.90;999.90;;;34.20;94.80;;;;;;4929261;29;20808;-73
2023/07/07 08:33:13;;;;;;;1999.90;999.90;;;34.20;94.90;;;;;;4928789;29;20051;-71
2023/07/07 08:35:39;;;;;;;1999.90;999.90;;;34.30;94.50;;;;;;4927870;28;20447;-72
2023/07/07 08:38:05;;;;;;;1999.90;999.90;;;34.20;95.00;;;;;;4916250;28;20034;-72
2023/07/07 08:40:45;;;;;;;1999.90;999.90;;;35.00;95.10;;;;;;4932056;28;20027;-72
2023/07/07 08:43:11;;;;;;;1999.90;999.90;;;36.00;94.30;;;;;;4913453;29;20043;-73
2023/07/07 08:45:40;;;;;;;1999.90;999.90;;;35.60;94.30;;;;;;4938785;28;20545;-74
2023/07/07 08:48:25;;;;;;;1999.90;999.90;;;35.70;93.80;;;;;;4931667;28;20477;-72
2023/07/07 08:51:00;;;;;;;1999.90;999.90;;;35.90;93.70;;;;;;4925459;28;20034;-72
2023/07/07 08:53:35;;;;;;;1999.90;999.90;;;36.30;93.70;;;;;;4928908;29;20070;-73
2023/07/07 08:56:03;;;;;;;1999.90;999.90;;;36.60;93.10;;;;;;4930715;28;20102;-73
2023/07/07 08:58:32;;;;;;;1999.90;999.90;;;36.00;93.50;;;;;;4915407;28;20065;-73
2023/07/07 09:01:34;;;;;;;1999.90;999.90;;;35.60;93.70;;;;;;4929068;28;20035;-72
2023/07/07 09:04:17;;;;;;;;;;;36.30;94.00;;;;;;4927034;28;20153;-73
2023/07/07 09:06:51;;;;;;;1999.90;999.90;;;36.80;93.30;;;;;;4916497;28;19914;-72
2023/07/07 09:09:22;;;;;;;1999.90;999.90;;;36.40;93.60;;;;;;4926982;29;20541;-73
2023/07/07 09:12:15;;;;;;;1999.90;999.90;;;37.00;93.40;;;;;;4927728;28;20033;-74
2023/07/07 09:14:45;;;;;;;1999.90;999.90;;;37.20;93.00;;;;;;4925057;29;20035;-73
2023/07/07 09:17:19;;;;;;;1999.90;999.90;;;37.80;92.70;;;;;;4929099;28;20555;-73
2023/07/07 09:19:47;;;;;;;1999.90;999.90;;;38.00;92.70;;;;;;4925331;29;20094;-73
2023/07/07 09:22:31;;;;;;;1999.90;999.90;;;38.30;92.00;;;;;;4926866;29;20453;-73
2023/07/07 09:25:02;;;;;;;1999.90;999.90;;;37.70;91.90;;;;;;4926071;29;20046;-72
2023/07/07 09:27:31;;;;;;;;;;;36.80;92.40;;;;;;4927157;29;20073;-72
2023/07/07 09:30:22;;;;;;;1999.90;999.90;;;36.40;92.50;;;;;;4910048;29;19922;-72
2023/07/07 09:32:48;;;;;;;1999.90;999.90;;;36.10;93.00;;;;;;4930353;28;20381;-74
2023/07/07 09:35:14;;;;;;;1999.90;999.90;;;36.50;93.30;;;;;;4927884;29;20057;-72
2023/07/07 09:37:49;;;;;;;1999.90;999.90;;;35.10;93.30;;;;;;4926510;28;20171;-72
2023/07/07 09:40:16;;;;;;;1999.90;999.90;;;34.70;94.90;;;;;;4923706;29;20045;-73
2023/07/07 09:43:01;;;;;;;1999.90;999.90;;;35.80;94.60;;;;;;4926938;28;20146;-73
2023/07/07 09:45:48;;;;;;;1999.90;999.90;;;37.40;93.70;;;;;;4899972;29;20563;-72
2023/07/07 09:48:17;;;;;;;1999.90;999.90;;;38.20;92.10;;;;;;4909494;29;20054;-72
2023/07/07 09:50:47;;;;;;;1999.90;999.90;;;38.00;91.80;;;;;;4927110;28;20556;-74
2023/07/07 09:53:19;;;;;;;1999.90;999.90;;;37.60;92.80;;;;;;4927555;29;20367;-74
2023/07/07 09:55:45;;;;;;;1999.90;999.90;;;37.40;92.50;;;;;;4927101;29;20019;-72
2023/07/07 09:58:20;;;;;;;1999.90;999.90;;;37.00;93.70;;;;;;4927144;28;20039;-72
2023/07/07 10:00:50;;;;;;;1999.90;999.90;;;36.60;92.60;;;;;;4926303;28;20660;-72
2023/07/07 10:03:36;;;;;;;1999.90;999.90;;;34.80;94.50;;;;;;4925865;28;20047;-72
2023/07/07 10:06:11;;;;;;;1999.90;999.90;;;33.70;96.90;;;;;;4941012;28;20130;-72
2023/07/07 10:08:37;;;;;;;1999.90;999.90;;;33.90;96.60;;;;;;4908131;29;20038;-72
2023/07/07 10:11:22;;;;;;;1999.90;999.90;;;34.50;96.30;;;;;;4910477;29;20031;-72
2023/07/07 10:13:49;;;;;;;1999.90;999.90;;;34.60;95.90;;;;;;4936709;28;20043;-72
2023/07/07 10:16:28;;;;;;;1999.90;999.90;;;33.70;96.40;;;;;;4928307;28;20780;-71
2023/07/07 10:18:56;;;;;;;1999.90;999.90;;;32.40;97.90;;;;;;4926373;28;20046;-72
2023/07/07 10:21:21;;;;;;;1999.90;999.90;;;33.20;98.10;;;;;;4925676;29;20034;-72
2023/07/07 10:23:47;;;;;;;1999.90;999.90;;;33.00;98.50;;;;;;4911663;29;20035;-72
2023/07/07 10:26:13;;;;;;;1999.90;999.90;;;34.50;97.50;;;;;;4929000;28;20366;-72
2023/07/07 10:28:38;;;;;;;1999.90;999.90;;;35.10;95.90;;;;;;4927257;28;20039;-71
2023/07/07 10:31:05;;;;;;;1999.90;999.90;;;34.70;96.30;;;;;;4907970;29;20035;-72
2023/07/07 10:33:30;;;;;;;1999.90;999.90;;;34.10;96.10;;;;;;4908343;29;20035;-73
2023/07/07 10:35:56;;;;;;;1999.90;999.90;;;34.00;97.00;;;;;;4931264;28;20868;-73
2023/07/07 10:38:22;;;;;;;1999.90;999.90;;;34.90;96.60;;;;;;4917581;28;20407;-72
2023/07/07 10:40:48;;;;;;;1999.90;999.90;;;35.30;95.30;;;;;;4940635;28;20038;-74
2023/07/07 10:43:15;;;;;;;1999.90;999.90;;;35.80;95.70;;;;;;4929791;28;20062;-74
2023/07/07 10:45:45;;;;;;;1999.90;999.90;;;35.40;95.60;;;;;;4929934;28;20030;-73
2023/07/07 10:48:12;;;;;;;1999.90;999.90;;;35.50;95.20;;;;;;4931223;28;20381;-72
2023/07/07 10:50:52;;;;;;;1999.90;999.90;;;35.60;94.70;;;;;;4919917;28;20034;-72
2023/07/07 10:53:30;;;;;;;1999.90;999.90;;;34.80;95.30;;;;;;4937873;28;20030;-72
2023/07/07 10:56:31;;;;;;;1999.90;999.90;;;34.20;96.50;;;;;;4943510;28;20607;-73
2023/07/07 10:59:27;;;;;;;1999.90;999.90;;;34.10;97.10;;;;;;4861399;29;20429;-72
2023/07/07 11:02:14;;;;;;;1999.90;999.90;;;34.20;97.30;;;;;;4854314;29;20041;-72
2023/07/07 11:05:03;;;;;;;1999.90;999.90;;;34.10;97.80;;;;;;4856607;29;20400;-72
2023/07/07 11:07:39;;;;;;;1999.90;999.90;;;34.10;98.10;;;;;;4852396;29;20112;-72
2023/07/07 11:10:17;;;;;;;1999.90;999.90;;;34.60;97.50;;;;;;4860319;29;20514;-74
2023/07/07 11:13:01;;;;;;;1999.90;999.90;;;35.10;97.00;;;;;;4855637;29;20472;-73
2023/07/07 11:15:46;;;;;;;1999.90;999.90;;;35.60;96.00;;;;;;4852822;29;20067;-72
2023/07/07 11:18:12;;;;;;;1999.90;999.90;;;35.80;96.30;;;;;;4846931;29;20333;-73
2023/07/07 11:20:59;;;;;;;1999.90;999.90;;;35.80;95.90;;;;;;4864902;29;20555;-74
2023/07/07 11:23:24;;;;;;;1999.90;999.90;;;35.50;95.60;;;;;;4838656;29;20041;-74
2023/07/07 11:26:09;;;;;;;1999.90;999.90;;;35.20;96.20;;;;;;4858027;29;20796;-73
2023/07/07 11:29:08;;;;;;;1999.90;999.90;;;35.50;96.20;;;;;;4867829;29;20353;-73
2023/07/07 11:31:43;;;;;;;1999.90;999.90;;;35.60;95.20;;;;;;4863518;29;20036;-73
2023/07/07 11:34:31;;;;;;;1999.90;999.90;;;36.20;95.60;;;;;;4924942;28;20051;-73
2023/07/07 11:37:04;;;;;;;1999.90;999.90;;;36.20;94.80;;;;;;4929952;28;20028;-73
2023/07/07 11:40:06;;;;;;;1999.90;999.90;;;35.10;95.40;;;;;;4928079;28;20043;-72
2023/07/07 11:43:09;;;;;;;1999.90;999.90;;;34.40;96.20;;;;;;4912098;28;20767;-72
2023/07/07 11:45:43;;;;;;;1999.90;999.90;;;33.60;97.90;;;;;;4927412;28;20042;-73
2023/07/07 11:48:30;;;;;;;1999.90;999.90;;;33.60;97.90;;;;;;4907395;29;21011;-72
2023/07/07 11:51:01;;;;;;;1999.90;999.90;;;33.50;97.60;;;;;;4930194;29;20046;-73
2023/07/07 11:53:45;;;;;;;1999.90;999.90;;;34.40;97.70;;;;;;4928698;29;20094;-73
2023/07/07 11:56:48;;;;;;;1999.90;999.90;;;35.60;96.70;;;;;;4927105;29;20137;-72
2023/07/07 11:59:32;;;;;;;1999.90;999.90;;;35.50;95.40;;;;;;4931317;28;20546;-74
2023/07/07 12:02:00;;;;;;;1999.90;999.90;;;36.20;96.10;;;;;;4911068;28;20067;-74
2023/07/07 12:04:39;;;;;;;1999.90;999.90;;;36.40;95.40;;;;;;4947317;28;20132;-73
2023/07/07 12:07:32;;;;;;;1999.90;999.90;;;37.00;96.10;;;;;;4932989;28;20035;-72
2023/07/07 12:10:19;;;;;;;1999.90;999.90;;;36.60;95.10;;;;;;4922876;29;20549;-72
2023/07/07 12:13:10;;;;;;;1999.90;999.90;;;36.80;95.80;;;;;;4925511;29;20157;-74
2023/07/07 12:15:49;;;;;;;1999.90;999.90;;;36.60;94.90;;;;;;4909596;29;20449;-74
2023/07/07 12:18:17;;;;;;;1999.90;999.90;;;35.70;94.80;;;;;;4927977;28;20412;-72